sensor_id;sensor_type;location;lat;lon;timestamp;pressure;altitude;pressure_sealevel;temperature;humidity
16690;BME280;8458;52.220;9.884;2022-08-14T00:00:52;100629.97;;;23.15;61.87
16690;BME280;8458;52.220;9.884;2022-08-14T00:03:20;100632.81;;;23.15;63.21
16690;BME280;8458;52.220;9.884;2022-08-14T00:05:49;100634.22;;;23.08;64.33
16690;BME280;8458;52.220;9.884;2022-08-14T00:08:16;100633.22;;;23.04;64.95
16690;BME280;8458;52.220;9.884;2022-08-14T00:10:43;100633.09;;;23.01;65.44
16690;BME280;8458;52.220;9.884;2022-08-14T00:13:10;100635.31;;;22.95;65.40
16690;BME280;8458;52.220;9.884;2022-08-14T00:15:39;100636.38;;;22.90;63.96
16690;BME280;8458;52.220;9.884;2022-08-14T00:18:08;100637.41;;;22.73;64.33
16690;BME280;8458;52.220;9.884;2022-08-14T00:20:39;100643.28;;;22.68;65.06
16690;BME280;8458;52.220;9.884;2022-08-14T00:23:08;100643.13;;;22.65;65.27
16690;BME280;8458;52.220;9.884;2022-08-14T00:25:35;100639.94;;;22.66;65.20
16690;BME280;8458;52.220;9.884;2022-08-14T00:28:03;100639.00;;;22.62;65.57
16690;BME280;8458;52.220;9.884;2022-08-14T00:30:30;100635.34;;;22.62;65.65
16690;BME280;8458;52.220;9.884;2022-08-14T00:32:57;100633.38;;;22.62;65.84
16690;BME280;8458;52.220;9.884;2022-08-14T00:35:23;100636.53;;;22.61;65.85
16690;BME280;8458;52.220;9.884;2022-08-14T00:37:50;100632.41;;;22.58;65.68
16690;BME280;8458;52.220;9.884;2022-08-14T00:40:19;100623.66;;;22.51;65.96
16690;BME280;8458;52.220;9.884;2022-08-14T00:42:46;100618.69;;;22.48;66.27
16690;BME280;8458;52.220;9.884;2022-08-14T00:45:13;100612.59;;;22.46;66.77
16690;BME280;8458;52.220;9.884;2022-08-14T00:47:43;100609.28;;;22.44;66.74
16690;BME280;8458;52.220;9.884;2022-08-14T00:50:13;100607.84;;;22.37;67.18
16690;BME280;8458;52.220;9.884;2022-08-14T00:52:40;100608.19;;;22.36;67.26
16690;BME280;8458;52.220;9.884;2022-08-14T00:55:08;100606.41;;;22.31;67.36
16690;BME280;8458;52.220;9.884;2022-08-14T00:57:37;100606.41;;;22.31;67.44
16690;BME280;8458;52.220;9.884;2022-08-14T01:00:07;100605.72;;;22.34;67.25
16690;BME280;8458;52.220;9.884;2022-08-14T01:02:35;100600.06;;;22.34;67.39
16690;BME280;8458;52.220;9.884;2022-08-14T01:05:04;100598.41;;;22.33;67.34
16690;BME280;8458;52.220;9.884;2022-08-14T01:07:48;100592.50;;;22.26;67.78
16690;BME280;8458;52.220;9.884;2022-08-14T01:10:15;100591.41;;;22.18;67.73
16690;BME280;8458;52.220;9.884;2022-08-14T01:12:43;100589.09;;;22.12;67.39
16690;BME280;8458;52.220;9.884;2022-08-14T01:15:10;100590.44;;;22.14;67.69
16690;BME280;8458;52.220;9.884;2022-08-14T01:17:36;100584.66;;;22.11;67.78
16690;BME280;8458;52.220;9.884;2022-08-14T01:20:21;100579.69;;;22.08;68.15
16690;BME280;8458;52.220;9.884;2022-08-14T01:23:07;100585.34;;;22.08;67.47
16690;BME280;8458;52.220;9.884;2022-08-14T01:25:34;100585.75;;;21.97;66.82
16690;BME280;8458;52.220;9.884;2022-08-14T01:28:02;100584.31;;;21.91;66.94
16690;BME280;8458;52.220;9.884;2022-08-14T01:30:30;100592.31;;;21.89;67.83
16690;BME280;8458;52.220;9.884;2022-08-14T01:32:57;100589.94;;;21.91;68.13
16690;BME280;8458;52.220;9.884;2022-08-14T01:35:24;100596.91;;;21.94;68.32
16690;BME280;8458;52.220;9.884;2022-08-14T01:37:52;100588.78;;;21.92;68.55
16690;BME280;8458;52.220;9.884;2022-08-14T01:40:23;100581.84;;;21.90;68.37
16690;BME280;8458;52.220;9.884;2022-08-14T01:42:49;100579.13;;;21.93;68.27
16690;BME280;8458;52.220;9.884;2022-08-14T01:45:16;100578.31;;;21.93;67.53
16690;BME280;8458;52.220;9.884;2022-08-14T01:47:42;100577.56;;;21.83;67.51
16690;BME280;8458;52.220;9.884;2022-08-14T01:50:09;100578.25;;;21.80;67.59
16690;BME280;8458;52.220;9.884;2022-08-14T01:52:36;100581.88;;;21.81;68.17
16690;BME280;8458;52.220;9.884;2022-08-14T01:55:04;100571.28;;;21.78;68.39
16690;BME280;8458;52.220;9.884;2022-08-14T01:57:34;100574.09;;;21.78;68.81
16690;BME280;8458;52.220;9.884;2022-08-14T02:00:04;100576.00;;;21.74;68.95
16690;BME280;8458;52.220;9.884;2022-08-14T02:02:32;100563.84;;;21.73;69.18
16690;BME280;8458;52.220;9.884;2022-08-14T02:04:58;100558.31;;;21.64;69.42
16690;BME280;8458;52.220;9.884;2022-08-14T02:07:25;100556.84;;;21.58;68.17
16690;BME280;8458;52.220;9.884;2022-08-14T02:09:52;100561.03;;;21.52;67.04
16690;BME280;8458;52.220;9.884;2022-08-14T02:12:19;100561.88;;;21.44;67.21
16690;BME280;8458;52.220;9.884;2022-08-14T02:14:47;100556.44;;;21.39;67.80
16690;BME280;8458;52.220;9.884;2022-08-14T02:17:13;100550.03;;;21.29;68.38
16690;BME280;8458;52.220;9.884;2022-08-14T02:19:40;100554.84;;;21.29;68.92
16690;BME280;8458;52.220;9.884;2022-08-14T02:22:06;100553.31;;;21.31;69.32
16690;BME280;8458;52.220;9.884;2022-08-14T02:24:33;100554.00;;;21.28;69.44
16690;BME280;8458;52.220;9.884;2022-08-14T02:27:00;100550.84;;;21.30;69.49
16690;BME280;8458;52.220;9.884;2022-08-14T02:29:29;100553.06;;;21.24;69.50
16690;BME280;8458;52.220;9.884;2022-08-14T02:31:58;100542.13;;;21.23;69.70
16690;BME280;8458;52.220;9.884;2022-08-14T02:34:30;100543.28;;;21.22;70.02
16690;BME280;8458;52.220;9.884;2022-08-14T02:36:59;100548.56;;;21.23;70.16
16690;BME280;8458;52.220;9.884;2022-08-14T02:39:27;100544.94;;;21.23;70.73
16690;BME280;8458;52.220;9.884;2022-08-14T02:41:54;100542.47;;;21.21;70.64
16690;BME280;8458;52.220;9.884;2022-08-14T02:44:21;100547.25;;;21.21;70.91
16690;BME280;8458;52.220;9.884;2022-08-14T02:46:48;100540.78;;;21.20;71.18
16690;BME280;8458;52.220;9.884;2022-08-14T02:49:17;100542.47;;;21.21;71.35
16690;BME280;8458;52.220;9.884;2022-08-14T02:51:47;100539.81;;;21.16;71.85
16690;BME280;8458;52.220;9.884;2022-08-14T02:54:13;100534.34;;;21.20;71.69
16690;BME280;8458;52.220;9.884;2022-08-14T02:56:40;100531.84;;;21.18;71.67
16690;BME280;8458;52.220;9.884;2022-08-14T02:59:07;100534.16;;;21.16;71.70
16690;BME280;8458;52.220;9.884;2022-08-14T03:01:35;100530.88;;;21.14;71.10
16690;BME280;8458;52.220;9.884;2022-08-14T03:04:02;100533.91;;;21.09;69.73
16690;BME280;8458;52.220;9.884;2022-08-14T03:06:31;100533.75;;;21.05;70.26
16690;BME280;8458;52.220;9.884;2022-08-14T03:08:58;100532.66;;;20.98;70.46
16690;BME280;8458;52.220;9.884;2022-08-14T03:11:25;100529.31;;;20.95;68.97
16690;BME280;8458;52.220;9.884;2022-08-14T03:13:52;100532.53;;;20.85;69.39
16690;BME280;8458;52.220;9.884;2022-08-14T03:16:23;100528.94;;;20.76;70.94
16690;BME280;8458;52.220;9.884;2022-08-14T03:18:52;100522.97;;;20.69;71.50
16690;BME280;8458;52.220;9.884;2022-08-14T03:21:20;100520.97;;;20.69;71.98
16690;BME280;8458;52.220;9.884;2022-08-14T03:23:50;100522.50;;;20.67;72.53
16690;BME280;8458;52.220;9.884;2022-08-14T03:26:22;100523.13;;;20.64;72.91
16690;BME280;8458;52.220;9.884;2022-08-14T03:28:51;100523.81;;;20.60;72.92
16690;BME280;8458;52.220;9.884;2022-08-14T03:31:19;100515.38;;;20.60;72.50
16690;BME280;8458;52.220;9.884;2022-08-14T03:33:49;100513.22;;;20.57;72.00
16690;BME280;8458;52.220;9.884;2022-08-14T03:36:18;100512.22;;;20.53;72.03
16690;BME280;8458;52.220;9.884;2022-08-14T03:38:48;100509.91;;;20.55;72.72
16690;BME280;8458;52.220;9.884;2022-08-14T03:41:20;100508.09;;;20.51;73.13
16690;BME280;8458;52.220;9.884;2022-08-14T03:43:48;100499.03;;;20.36;73.84
16690;BME280;8458;52.220;9.884;2022-08-14T03:46:15;100497.22;;;20.40;73.66
16690;BME280;8458;52.220;9.884;2022-08-14T03:48:44;100493.06;;;20.38;73.93
16690;BME280;8458;52.220;9.884;2022-08-14T03:51:12;100493.22;;;20.41;73.96
16690;BME280;8458;52.220;9.884;2022-08-14T03:53:42;100497.22;;;20.40;74.32
16690;BME280;8458;52.220;9.884;2022-08-14T03:56:12;100503.66;;;20.41;74.38
16690;BME280;8458;52.220;9.884;2022-08-14T03:58:40;100490.72;;;20.40;74.58
16690;BME280;8458;52.220;9.884;2022-08-14T04:01:08;100488.44;;;20.42;74.57
16690;BME280;8458;52.220;9.884;2022-08-14T04:03:34;100487.75;;;20.45;74.38
16690;BME280;8458;52.220;9.884;2022-08-14T04:06:01;100486.22;;;20.48;74.40
16690;BME280;8458;52.220;9.884;2022-08-14T04:08:28;100485.91;;;20.49;74.49
16690;BME280;8458;52.220;9.884;2022-08-14T04:10:54;100479.66;;;20.44;74.44
16690;BME280;8458;52.220;9.884;2022-08-14T04:13:23;100480.47;;;20.44;73.66
16690;BME280;8458;52.220;9.884;2022-08-14T04:15:49;100483.63;;;20.42;73.41
16690;BME280;8458;52.220;9.884;2022-08-14T04:18:16;100477.16;;;20.42;73.66
16690;BME280;8458;52.220;9.884;2022-08-14T04:20:42;100486.75;;;20.41;73.80
16690;BME280;8458;52.220;9.884;2022-08-14T04:23:09;100486.75;;;20.41;73.94
16690;BME280;8458;52.220;9.884;2022-08-14T04:25:36;100477.84;;;20.39;73.90
16690;BME280;8458;52.220;9.884;2022-08-14T04:28:05;100480.81;;;20.34;74.16
16690;BME280;8458;52.220;9.884;2022-08-14T04:30:33;100476.84;;;20.35;74.25
16690;BME280;8458;52.220;9.884;2022-08-14T04:33:03;100480.53;;;20.27;74.39
16690;BME280;8458;52.220;9.884;2022-08-14T04:35:30;100478.19;;;20.29;74.74
16690;BME280;8458;52.220;9.884;2022-08-14T04:37:56;100476.38;;;20.24;74.88
16690;BME280;8458;52.220;9.884;2022-08-14T04:40:40;100474.03;;;20.26;75.34
16690;BME280;8458;52.220;9.884;2022-08-14T04:43:24;100482.34;;;20.22;75.25
16690;BME280;8458;52.220;9.884;2022-08-14T04:46:08;100475.56;;;20.23;74.87
16690;BME280;8458;52.220;9.884;2022-08-14T04:48:35;100474.44;;;20.07;75.72
16690;BME280;8458;52.220;9.884;2022-08-14T04:51:03;100473.28;;;20.08;75.83
16690;BME280;8458;52.220;9.884;2022-08-14T04:53:30;100458.41;;;19.99;76.13
16690;BME280;8458;52.220;9.884;2022-08-14T04:55:57;100463.03;;;19.95;76.35
16690;BME280;8458;52.220;9.884;2022-08-14T04:58:26;100463.84;;;19.95;76.05
16690;BME280;8458;52.220;9.884;2022-08-14T05:00:55;100457.56;;;19.98;76.04
16690;BME280;8458;52.220;9.884;2022-08-14T05:03:24;100450.44;;;20.01;76.37
16690;BME280;8458;52.220;9.884;2022-08-14T05:05:53;100440.00;;;20.01;76.34
16690;BME280;8458;52.220;9.884;2022-08-14T05:08:20;100448.09;;;20.12;76.83
16690;BME280;8458;52.220;9.884;2022-08-14T05:10:49;100453.72;;;20.20;76.79
16690;BME280;8458;52.220;9.884;2022-08-14T05:13:16;100450.59;;;20.13;77.04
16690;BME280;8458;52.220;9.884;2022-08-14T05:15:44;100443.47;;;20.07;78.02
16690;BME280;8458;52.220;9.884;2022-08-14T05:18:12;100451.75;;;20.12;78.04
16690;BME280;8458;52.220;9.884;2022-08-14T05:20:41;100447.25;;;20.20;77.93
16690;BME280;8458;52.220;9.884;2022-08-14T05:23:11;100450.72;;;20.26;78.00
16690;BME280;8458;52.220;9.884;2022-08-14T05:25:38;100437.78;;;20.24;78.26
16690;BME280;8458;52.220;9.884;2022-08-14T05:28:08;100452.19;;;20.32;78.61
16690;BME280;8458;52.220;9.884;2022-08-14T05:30:35;100442.94;;;20.31;78.96
16690;BME280;8458;52.220;9.884;2022-08-14T05:33:02;100438.94;;;20.32;79.18
16690;BME280;8458;52.220;9.884;2022-08-14T05:35:29;100444.06;;;20.39;79.12
16690;BME280;8458;52.220;9.884;2022-08-14T05:37:58;100443.53;;;20.37;79.62
16690;BME280;8458;52.220;9.884;2022-08-14T05:40:24;100435.28;;;20.40;79.97
16690;BME280;8458;52.220;9.884;2022-08-14T05:42:51;100434.25;;;20.45;80.34
16690;BME280;8458;52.220;9.884;2022-08-14T05:45:18;100429.25;;;20.51;80.18
16690;BME280;8458;52.220;9.884;2022-08-14T05:47:44;100428.44;;;20.50;80.99
16690;BME280;8458;52.220;9.884;2022-08-14T05:50:12;100415.81;;;20.56;81.08
16690;BME280;8458;52.220;9.884;2022-08-14T05:52:39;100417.78;;;20.65;81.21
16690;BME280;8458;52.220;9.884;2022-08-14T05:55:08;100411.97;;;20.70;80.76
16690;BME280;8458;52.220;9.884;2022-08-14T05:57:45;100402.63;;;20.78;80.30
16690;BME280;8458;52.220;9.884;2022-08-14T06:00:13;100410.88;;;20.83;80.86
16690;BME280;8458;52.220;9.884;2022-08-14T06:02:39;100410.97;;;20.95;80.72
16690;BME280;8458;52.220;9.884;2022-08-14T06:05:06;100414.53;;;21.05;81.52
16690;BME280;8458;52.220;9.884;2022-08-14T06:07:34;100412.78;;;21.21;79.95
16690;BME280;8458;52.220;9.884;2022-08-14T06:10:01;100403.28;;;21.26;79.83
16690;BME280;8458;52.220;9.884;2022-08-14T06:12:29;100408.50;;;21.36;78.91
16690;BME280;8458;52.220;9.884;2022-08-14T06:14:55;100398.19;;;21.40;78.96
16690;BME280;8458;52.220;9.884;2022-08-14T06:17:22;100394.78;;;21.47;79.68
16690;BME280;8458;52.220;9.884;2022-08-14T06:19:48;100396.25;;;21.53;79.20
16690;BME280;8458;52.220;9.884;2022-08-14T06:22:15;100393.25;;;21.58;78.33
16690;BME280;8458;52.220;9.884;2022-08-14T06:24:41;100387.03;;;21.65;78.96
16690;BME280;8458;52.220;9.884;2022-08-14T06:27:08;100384.47;;;21.72;78.80
16690;BME280;8458;52.220;9.884;2022-08-14T06:29:37;100379.91;;;21.80;78.43
16690;BME280;8458;52.220;9.884;2022-08-14T06:32:03;100381.81;;;21.88;77.55
16690;BME280;8458;52.220;9.884;2022-08-14T06:34:30;100384.91;;;21.95;78.53
16690;BME280;8458;52.220;9.884;2022-08-14T06:36:57;100384.91;;;22.08;78.54
16690;BME280;8458;52.220;9.884;2022-08-14T06:39:24;100391.50;;;22.24;78.42
16690;BME280;8458;52.220;9.884;2022-08-14T06:41:50;100387.22;;;22.39;77.47
16690;BME280;8458;52.220;9.884;2022-08-14T06:44:17;100383.69;;;22.54;76.31
16690;BME280;8458;52.220;9.884;2022-08-14T06:46:44;100389.69;;;22.65;76.72
16690;BME280;8458;52.220;9.884;2022-08-14T06:49:11;100391.06;;;22.84;75.53
16690;BME280;8458;52.220;9.884;2022-08-14T06:51:37;100384.69;;;22.99;75.30
16690;BME280;8458;52.220;9.884;2022-08-14T06:54:11;100383.25;;;23.18;73.79
16690;BME280;8458;52.220;9.884;2022-08-14T06:56:37;100377.94;;;23.29;73.64
16690;BME280;8458;52.220;9.884;2022-08-14T06:59:04;100387.44;;;23.36;73.58
16690;BME280;8458;52.220;9.884;2022-08-14T07:01:31;100378.66;;;23.54;73.31
16690;BME280;8458;52.220;9.884;2022-08-14T07:04:24;100381.50;;;23.70;73.45
16690;BME280;8458;52.220;9.884;2022-08-14T07:07:08;100369.06;;;23.87;71.86
16690;BME280;8458;52.220;9.884;2022-08-14T07:09:35;100375.09;;;24.01;72.84
16690;BME280;8458;52.220;9.884;2022-08-14T07:12:02;100374.41;;;24.20;70.87
16690;BME280;8458;52.220;9.884;2022-08-14T07:14:29;100369.38;;;24.29;71.08
16690;BME280;8458;52.220;9.884;2022-08-14T07:16:55;100373.28;;;24.41;71.82
16690;BME280;8458;52.220;9.884;2022-08-14T07:19:22;100371.38;;;24.61;70.68
16690;BME280;8458;52.220;9.884;2022-08-14T07:21:50;100368.00;;;24.71;68.71
16690;BME280;8458;52.220;9.884;2022-08-14T07:24:16;100381.13;;;24.79;68.86
16690;BME280;8458;52.220;9.884;2022-08-14T07:26:43;100379.66;;;24.85;69.09
16690;BME280;8458;52.220;9.884;2022-08-14T07:29:10;100383.41;;;24.90;68.52
16690;BME280;8458;52.220;9.884;2022-08-14T07:31:36;100382.66;;;24.93;68.57
16690;BME280;8458;52.220;9.884;2022-08-14T07:34:03;100391.16;;;24.93;68.64
16690;BME280;8458;52.220;9.884;2022-08-14T07:36:29;100383.16;;;24.98;68.92
16690;BME280;8458;52.220;9.884;2022-08-14T07:38:58;100375.66;;;25.06;68.15
16690;BME280;8458;52.220;9.884;2022-08-14T07:41:24;100385.19;;;25.17;67.96
16690;BME280;8458;52.220;9.884;2022-08-14T07:43:51;100374.97;;;25.29;68.37
16690;BME280;8458;52.220;9.884;2022-08-14T07:46:17;100374.56;;;25.50;67.82
16690;BME280;8458;52.220;9.884;2022-08-14T07:48:44;100373.59;;;25.62;66.23
16690;BME280;8458;52.220;9.884;2022-08-14T07:51:12;100375.75;;;25.68;65.92
16690;BME280;8458;52.220;9.884;2022-08-14T07:53:39;100384.84;;;25.77;66.73
16690;BME280;8458;52.220;9.884;2022-08-14T07:56:07;100377.81;;;25.91;66.39
16690;BME280;8458;52.220;9.884;2022-08-14T07:58:34;100382.63;;;26.10;65.91
16690;BME280;8458;52.220;9.884;2022-08-14T08:01:03;100378.47;;;26.27;65.69
16690;BME280;8458;52.220;9.884;2022-08-14T08:03:32;100370.56;;;26.40;63.21
16690;BME280;8458;52.220;9.884;2022-08-14T08:06:00;100377.94;;;26.44;63.06
16690;BME280;8458;52.220;9.884;2022-08-14T08:08:29;100376.25;;;26.40;63.61
16690;BME280;8458;52.220;9.884;2022-08-14T08:10:56;100381.53;;;26.41;62.61
16690;BME280;8458;52.220;9.884;2022-08-14T08:13:25;100372.63;;;26.43;64.04
16690;BME280;8458;52.220;9.884;2022-08-14T08:15:53;100364.28;;;26.54;63.70
16690;BME280;8458;52.220;9.884;2022-08-14T08:18:21;100365.50;;;26.76;61.63
16690;BME280;8458;52.220;9.884;2022-08-14T08:20:50;100362.31;;;26.81;61.77
16690;BME280;8458;52.220;9.884;2022-08-14T08:23:19;100371.59;;;26.78;60.71
16690;BME280;8458;52.220;9.884;2022-08-14T08:25:48;100383.34;;;26.76;61.11
16690;BME280;8458;52.220;9.884;2022-08-14T08:28:16;100363.94;;;26.82;60.53
16690;BME280;8458;52.220;9.884;2022-08-14T08:30:48;100367.25;;;26.88;61.77
16690;BME280;8458;52.220;9.884;2022-08-14T08:33:16;100373.06;;;26.95;60.86
16690;BME280;8458;52.220;9.884;2022-08-14T08:35:44;100361.25;;;26.93;60.16
16690;BME280;8458;52.220;9.884;2022-08-14T08:38:13;100362.84;;;26.90;61.67
16690;BME280;8458;52.220;9.884;2022-08-14T08:40:43;100361.69;;;26.95;60.75
16690;BME280;8458;52.220;9.884;2022-08-14T08:43:16;100364.69;;;27.06;60.10
16690;BME280;8458;52.220;9.884;2022-08-14T08:45:43;100358.75;;;27.18;61.32
16690;BME280;8458;52.220;9.884;2022-08-14T08:48:11;100359.31;;;27.31;59.67
16690;BME280;8458;52.220;9.884;2022-08-14T08:50:38;100355.44;;;27.43;59.99
16690;BME280;8458;52.220;9.884;2022-08-14T08:53:07;100353.63;;;27.61;59.93
16690;BME280;8458;52.220;9.884;2022-08-14T08:55:35;100345.69;;;27.81;58.83
16690;BME280;8458;52.220;9.884;2022-08-14T08:58:04;100336.81;;;27.90;57.04
16690;BME280;8458;52.220;9.884;2022-08-14T09:00:32;100337.59;;;27.87;55.88
16690;BME280;8458;52.220;9.884;2022-08-14T09:03:02;100331.88;;;27.83;57.00
16690;BME280;8458;52.220;9.884;2022-08-14T09:05:32;100338.44;;;27.87;57.77
16690;BME280;8458;52.220;9.884;2022-08-14T09:08:14;100333.16;;;27.89;56.40
16690;BME280;8458;52.220;9.884;2022-08-14T09:10:41;100340.97;;;27.96;56.96
16690;BME280;8458;52.220;9.884;2022-08-14T09:13:08;100328.00;;;28.02;57.54
16690;BME280;8458;52.220;9.884;2022-08-14T09:15:38;100334.59;;;28.10;56.59
16690;BME280;8458;52.220;9.884;2022-08-14T09:18:05;100317.56;;;28.21;54.19
16690;BME280;8458;52.220;9.884;2022-08-14T09:20:34;100314.78;;;28.28;54.44
16690;BME280;8458;52.220;9.884;2022-08-14T09:23:03;100323.50;;;28.46;55.34
16690;BME280;8458;52.220;9.884;2022-08-14T09:25:30;100317.03;;;28.56;54.03
16690;BME280;8458;52.220;9.884;2022-08-14T09:27:56;100319.47;;;28.58;53.53
16690;BME280;8458;52.220;9.884;2022-08-14T09:30:23;100309.75;;;28.59;52.54
16690;BME280;8458;52.220;9.884;2022-08-14T09:33:03;100311.44;;;28.67;53.99
16690;BME280;8458;52.220;9.884;2022-08-14T09:35:42;100313.91;;;28.72;52.75
16690;BME280;8458;52.220;9.884;2022-08-14T09:38:21;100297.28;;;28.82;52.71
16690;BME280;8458;52.220;9.884;2022-08-14T09:40:55;100292.03;;;28.98;51.01
16690;BME280;8458;52.220;9.884;2022-08-14T09:43:28;100291.22;;;28.94;50.63
16690;BME280;8458;52.220;9.884;2022-08-14T09:45:56;100276.16;;;28.97;51.25
16690;BME280;8458;52.220;9.884;2022-08-14T09:48:25;100283.47;;;29.02;51.50
16690;BME280;8458;52.220;9.884;2022-08-14T09:50:55;100281.47;;;29.02;50.55
16690;BME280;8458;52.220;9.884;2022-08-14T09:53:35;100276.16;;;29.08;52.34
16690;BME280;8458;52.220;9.884;2022-08-14T09:56:03;100276.28;;;29.22;49.59
16690;BME280;8458;52.220;9.884;2022-08-14T09:58:38;100276.66;;;29.21;49.63
16690;BME280;8458;52.220;9.884;2022-08-14T10:01:10;100265.25;;;29.21;50.60
16690;BME280;8458;52.220;9.884;2022-08-14T10:03:46;100268.53;;;29.33;49.69
16690;BME280;8458;52.220;9.884;2022-08-14T10:06:16;100257.13;;;29.33;48.94
16690;BME280;8458;52.220;9.884;2022-08-14T10:08:46;100255.91;;;29.38;48.85
16690;BME280;8458;52.220;9.884;2022-08-14T10:11:18;100253.06;;;29.38;49.41
16690;BME280;8458;52.220;9.884;2022-08-14T10:13:47;100254.69;;;29.46;49.13
16690;BME280;8458;52.220;9.884;2022-08-14T10:16:16;100249.81;;;29.47;48.60
16690;BME280;8458;52.220;9.884;2022-08-14T10:18:43;100248.19;;;29.53;47.69
16690;BME280;8458;52.220;9.884;2022-08-14T10:21:16;100244.94;;;29.58;48.92
16690;BME280;8458;52.220;9.884;2022-08-14T10:23:44;100251.47;;;29.59;49.47
16690;BME280;8458;52.220;9.884;2022-08-14T10:26:15;100249.84;;;29.65;48.67
16690;BME280;8458;52.220;9.884;2022-08-14T10:28:44;100241.69;;;29.78;48.90
16690;BME280;8458;52.220;9.884;2022-08-14T10:31:19;100243.34;;;29.97;49.52
16690;BME280;8458;52.220;9.884;2022-08-14T10:34:01;100242.94;;;30.16;48.04
16690;BME280;8458;52.220;9.884;2022-08-14T10:36:32;100238.41;;;30.44;47.61
16690;BME280;8458;52.220;9.884;2022-08-14T10:39:02;100222.03;;;30.52;45.89
16690;BME280;8458;52.220;9.884;2022-08-14T10:41:39;100231.47;;;30.52;45.43
16690;BME280;8458;52.220;9.884;2022-08-14T10:44:08;100225.31;;;30.50;45.01
16690;BME280;8458;52.220;9.884;2022-08-14T10:46:43;100221.59;;;30.68;45.62
16690;BME280;8458;52.220;9.884;2022-08-14T10:49:23;100214.16;;;30.81;45.09
16690;BME280;8458;52.220;9.884;2022-08-14T10:51:57;100215.47;;;30.69;44.55
16690;BME280;8458;52.220;9.884;2022-08-14T10:54:34;100202.00;;;30.66;45.46
16690;BME280;8458;52.220;9.884;2022-08-14T10:57:18;100206.00;;;30.80;45.25
16690;BME280;8458;52.220;9.884;2022-08-14T10:59:48;100209.63;;;31.02;45.28
16690;BME280;8458;52.220;9.884;2022-08-14T11:02:17;100203.47;;;31.03;44.66
16690;BME280;8458;52.220;9.884;2022-08-14T11:04:44;100200.16;;;31.12;45.05
16690;BME280;8458;52.220;9.884;2022-08-14T11:07:14;100192.31;;;31.23;44.77
16690;BME280;8458;52.220;9.884;2022-08-14T11:09:52;100187.38;;;31.31;44.55
16690;BME280;8458;52.220;9.884;2022-08-14T11:12:18;100182.34;;;31.46;44.39
16690;BME280;8458;52.220;9.884;2022-08-14T11:14:50;100176.53;;;31.60;43.77
16690;BME280;8458;52.220;9.884;2022-08-14T11:17:17;100192.75;;;31.78;43.52
16690;BME280;8458;52.220;9.884;2022-08-14T11:19:44;100183.63;;;31.90;43.03
16690;BME280;8458;52.220;9.884;2022-08-14T11:22:11;100183.44;;;32.08;42.98
16690;BME280;8458;52.220;9.884;2022-08-14T11:24:42;100174.69;;;32.26;42.74
16690;BME280;8458;52.220;9.884;2022-08-14T11:27:10;100180.44;;;32.26;41.26
16690;BME280;8458;52.220;9.884;2022-08-14T11:29:40;100176.13;;;32.04;41.32
16690;BME280;8458;52.220;9.884;2022-08-14T11:32:08;100168.16;;;31.80;41.16
16690;BME280;8458;52.220;9.884;2022-08-14T11:34:35;100173.97;;;31.70;42.97
16690;BME280;8458;52.220;9.884;2022-08-14T11:37:07;100173.97;;;31.70;42.61
16690;BME280;8458;52.220;9.884;2022-08-14T11:39:34;100173.25;;;31.58;42.65
16690;BME280;8458;52.220;9.884;2022-08-14T11:42:02;100178.88;;;31.73;43.30
16690;BME280;8458;52.220;9.884;2022-08-14T11:44:29;100161.03;;;31.96;42.98
16690;BME280;8458;52.220;9.884;2022-08-14T11:46:56;100158.28;;;31.85;41.91
16690;BME280;8458;52.220;9.884;2022-08-14T11:49:24;100146.81;;;31.85;42.87
16690;BME280;8458;52.220;9.884;2022-08-14T11:51:52;100152.50;;;31.92;41.55
16690;BME280;8458;52.220;9.884;2022-08-14T11:54:19;100151.53;;;32.06;42.81
16690;BME280;8458;52.220;9.884;2022-08-14T11:56:46;100153.38;;;32.27;41.86
16690;BME280;8458;52.220;9.884;2022-08-14T11:59:16;100147.19;;;32.32;41.69
16690;BME280;8458;52.220;9.884;2022-08-14T12:01:44;100152.06;;;32.35;41.48
16690;BME280;8458;52.220;9.884;2022-08-14T12:04:12;100138.88;;;32.42;41.35
16690;BME280;8458;52.220;9.884;2022-08-14T12:06:46;100151.84;;;32.53;41.02
16690;BME280;8458;52.220;9.884;2022-08-14T12:09:26;100130.03;;;32.25;40.75
16690;BME280;8458;52.220;9.884;2022-08-14T12:11:53;100141.06;;;31.89;41.04
16690;BME280;8458;52.220;9.884;2022-08-14T12:14:22;100120.84;;;31.61;41.69
16690;BME280;8458;52.220;9.884;2022-08-14T12:16:58;100127.59;;;31.37;42.43
16690;BME280;8458;52.220;9.884;2022-08-14T12:19:24;100114.22;;;31.19;41.76
16690;BME280;8458;52.220;9.884;2022-08-14T12:21:52;100117.13;;;31.16;43.21
16690;BME280;8458;52.220;9.884;2022-08-14T12:24:26;100115.28;;;31.40;42.51
16690;BME280;8458;52.220;9.884;2022-08-14T12:26:53;100107.88;;;31.46;41.63
16690;BME280;8458;52.220;9.884;2022-08-14T12:29:21;100105.38;;;31.52;41.60
16690;BME280;8458;52.220;9.884;2022-08-14T12:31:57;100110.16;;;31.69;43.19
16690;BME280;8458;52.220;9.884;2022-08-14T12:34:29;100101.75;;;31.89;41.05
16690;BME280;8458;52.220;9.884;2022-08-14T12:37:03;100095.88;;;32.04;41.86
16690;BME280;8458;52.220;9.884;2022-08-14T12:39:31;100094.09;;;32.17;41.61
16690;BME280;8458;52.220;9.884;2022-08-14T12:41:58;100097.19;;;32.33;41.30
16690;BME280;8458;52.220;9.884;2022-08-14T12:44:33;100089.34;;;32.38;40.96
16690;BME280;8458;52.220;9.884;2022-08-14T12:47:04;100074.91;;;32.45;41.37
16690;BME280;8458;52.220;9.884;2022-08-14T12:49:31;100077.72;;;32.48;41.48
16690;BME280;8458;52.220;9.884;2022-08-14T12:51:59;100081.50;;;32.42;40.43
16690;BME280;8458;52.220;9.884;2022-08-14T12:54:27;100071.38;;;32.33;40.83
16690;BME280;8458;52.220;9.884;2022-08-14T12:57:02;100071.47;;;32.26;41.58
16690;BME280;8458;52.220;9.884;2022-08-14T12:59:29;100063.81;;;32.16;40.55
16690;BME280;8458;52.220;9.884;2022-08-14T13:01:58;100059.06;;;31.98;41.02
16690;BME280;8458;52.220;9.884;2022-08-14T13:04:26;100061.16;;;31.94;41.82
16690;BME280;8458;52.220;9.884;2022-08-14T13:06:59;100056.91;;;32.13;41.36
16690;BME280;8458;52.220;9.884;2022-08-14T13:09:28;100044.22;;;32.42;42.21